Lady Maria Luisa — 3ENE4 — position and weather

sailwx.info

Track history (hours):
 
Tides and Currents Weather Stations Pressure Air Temp Water Temp Dewpoint Dewpoint Depression Visibility Wind Speed Wind Dir Waves Ship Positions

Lady Maria Luisa

Last reported at 2014-Aug-25 08:26 UTC. Time now 2014-Aug-30 18:35 UTC.
Position N 30°26' W 091°12'.

Length 224 m; draft 7.2 m.

Type: Cargo ship. MMSI: 355777000.

Date/timePositionNaut miles runAvg speedWind from/ knotsBaromVisibWave heightAir tempDewpointWater temp
2014-Aug-25 08:26N 30°26' W 091°12'0 0.0
2014-Aug-25 07:32N 30°26' W 091°12'  
2014-Aug-22 06:08N 30°26' W 091°12'0 0.0
2014-Aug-21 01:26N 30°26' W 091°12'2 0.1
2014-Aug-20 04:29N 30°24' W 091°13'0 0.0
2014-Aug-18 02:05N 30°24' W 091°13'0 0.0
2014-Aug-18 01:32N 30°24' W 091°13'28 1.0
2014-Aug-16 22:33N 30°03' W 090°51'8 8.0
2014-Aug-16 21:33N 30°02' W 090°41'9 9.4
2014-Aug-16 20:33N 30°03' W 090°31'1010.0
2014-Aug-16 19:33N 29°56' W 090°22'  
Track history (hours):
 
Tides and Currents Weather Stations Pressure Air Temp Water Temp Dewpoint Dewpoint Depression Visibility Wind Speed Wind Dir Waves Ship Positions

Lady Maria Luisa

Last reported at 2014-Aug-25 08:26 UTC. Time now 2014-Aug-30 18:35 UTC.
Position N 30°26' W 091°12'.

Length 224 m; draft 7.2 m.

Type: Cargo ship. MMSI: 355777000.

Date/timePositionNaut miles runAvg speedWind from/ knotsBaromVisibWave heightAir tempDewpointWater temp
2014-Aug-25 08:26N 30°26' W 091°12'0 0.0
2014-Aug-25 07:32N 30°26' W 091°12'  
2014-Aug-22 06:08N 30°26' W 091°12'0 0.0
2014-Aug-21 01:26N 30°26' W 091°12'2 0.1
2014-Aug-20 04:29N 30°24' W 091°13'0 0.0
2014-Aug-18 02:05N 30°24' W 091°13'0 0.0
2014-Aug-18 01:32N 30°24' W 091°13'28 1.0
2014-Aug-16 22:33N 30°03' W 090°51'8 8.0
2014-Aug-16 21:33N 30°02' W 090°41'9 9.4
2014-Aug-16 20:33N 30°03' W 090°31'1010.0
2014-Aug-16 19:33N 29°56' W 090°22'  

Dump ship's entire track history